Time;durP1;ratioP1;P1;durP2;ratioP2;P2;SDS_P1;SDS_P2;PMS_P1;PMS_P2;Temp;Humidity;BMP_temperature;BMP_pressure;BME280_temperature;BME280_humidity;BME280_pressure;Samples;Min_cycle;Max_cycle;Signal;HPM_P1;HPM_P2
2022/11/17 00:01:19;;;;;;;3.42;2.03;;;;;;;6.25;100.00;99733.56;6224105;28;20064;-74
2022/11/17 00:04:21;;;;;;;3.50;2.40;;;;;;;6.22;100.00;99725.91;6224363;28;20099;-74
2022/11/17 00:07:22;;;;;;;6.05;2.78;;;;;;;6.14;100.00;99712.44;6224249;28;20413;-74
2022/11/17 00:10:25;;;;;;;4.50;2.08;;;;;;;6.13;100.00;99708.09;6224160;28;20046;-74
2022/11/17 00:16:49;;;;;;;4.35;2.30;;;;;;;6.18;100.00;99699.16;6216820;28;20049;-75
2022/11/17 00:23:10;;;;;;;3.20;2.30;;;;;;;6.16;100.00;99698.38;6224286;28;20053;-74
2022/11/17 00:26:14;;;;;;;6.07;2.95;;;;;;;6.08;100.00;99701.38;6223675;28;20050;-74
2022/11/17 00:29:15;;;;;;;4.60;2.20;;;;;;;6.13;100.00;99689.84;6223882;28;20046;-74
2022/11/17 00:35:36;;;;;;;3.55;2.10;;;;;;;6.15;100.00;99686.25;6223134;28;20498;-76
2022/11/17 00:38:38;;;;;;;3.75;2.45;;;;;;;6.17;100.00;99676.56;6223511;28;20045;-76
2022/11/17 00:41:41;;;;;;;4.15;2.38;;;;;;;6.07;100.00;99673.59;6223272;28;20572;-74
2022/11/17 00:44:43;;;;;;;4.00;2.42;;;;;;;6.02;100.00;99659.97;6223079;28;20050;-74
2022/11/17 00:47:44;;;;;;;6.90;3.30;;;;;;;6.08;100.00;99669.22;6223737;28;20057;-75
2022/11/17 00:50:45;;;;;;;4.07;2.40;;;;;;;6.10;100.00;99663.03;6222946;28;20053;-74
2022/11/17 00:53:48;;;;;;;4.78;2.78;;;;;;;6.16;100.00;99661.00;6222928;28;20046;-74
2022/11/17 00:56:50;;;;;;;6.85;2.88;;;;;;;6.16;100.00;99650.56;6223173;28;20050;-73
2022/11/17 00:59:52;;;;;;;4.47;2.58;;;;;;;6.09;100.00;99650.91;6222795;28;20046;-73
2022/11/17 01:02:53;;;;;;;4.47;2.42;;;;;;;6.10;100.00;99646.53;6222901;28;20045;-76
2022/11/17 01:05:55;;;;;;;4.72;2.97;;;;;;;6.10;100.00;99639.53;6222601;28;20046;-76
2022/11/17 01:08:58;;;;;;;3.88;2.65;;;;;;;6.01;100.00;99640.03;6223359;28;20049;-76
2022/11/17 01:12:01;;;;;;;3.22;2.17;;;;;;;6.00;100.00;99656.59;6222639;28;20050;-76
2022/11/17 01:15:03;;;;;;;4.72;2.47;;;;;;;6.01;100.00;99636.59;6222636;28;20046;-76
2022/11/17 01:18:05;;;;;;;3.78;2.50;;;;;;;6.00;100.00;99627.91;6222729;28;20056;-76
2022/11/17 01:21:09;;;;;;;4.68;2.65;;;;;;;5.93;100.00;99613.50;6222689;28;20057;-76
2022/11/17 01:24:11;;;;;;;3.60;2.53;;;;;;;5.96;100.00;99605.53;6222138;28;20054;-76
2022/11/17 01:27:14;;;;;;;6.20;3.10;;;;;;;5.98;100.00;99608.06;6222649;28;20474;-74
2022/11/17 01:30:17;;;;;;;3.38;1.88;;;;;;;5.98;100.00;99601.06;6222120;28;20469;-74
2022/11/17 01:33:18;;;;;;;5.45;2.13;;;;;;;5.96;100.00;99602.09;6222294;28;20433;-73
2022/11/17 01:36:22;;;;;;;4.85;2.92;;;;;;;5.94;100.00;99591.72;6222115;28;20060;-74
2022/11/17 01:39:24;;;;;;;4.63;2.88;;;;;;;5.95;100.00;99595.16;6222141;28;20050;-74
2022/11/17 01:42:27;;;;;;;5.90;2.83;;;;;;;5.96;100.00;99592.50;6222024;28;20056;-74
2022/11/17 01:45:29;;;;;;;3.80;2.10;;;;;;;5.90;100.00;99587.56;6227809;23;20057;-74
2022/11/17 01:48:30;;;;;;;6.55;2.65;;;;;;;5.85;100.00;99586.94;6222103;28;20042;-74
2022/11/17 01:51:34;;;;;;;6.57;2.63;;;;;;;5.91;100.00;99584.03;6221918;28;20049;-77
2022/11/17 01:54:39;;;;;;;5.68;2.75;;;;;;;5.84;100.00;99583.50;6221897;28;20046;-74
2022/11/17 01:57:47;;;;;;;3.55;2.45;;;;;;;5.91;100.00;99580.59;6222092;28;20060;-74
2022/11/17 02:00:48;;;;;;;6.28;3.05;;;;;;;5.98;100.00;99569.78;6222158;28;20046;-75
2022/11/17 02:03:50;;;;;;;3.88;2.63;;;;;;;5.89;100.00;99558.97;6221893;28;20064;-74
2022/11/17 02:06:55;;;;;;;3.90;2.80;;;;;;;5.92;100.00;99562.28;6222112;28;20410;-74
2022/11/17 02:09:59;;;;;;;6.95;3.10;;;;;;;5.89;100.00;99574.59;6222203;28;20050;-76
2022/11/17 02:13:02;;;;;;;5.22;2.67;;;;;;;5.79;100.00;99566.44;6221874;28;20060;-77
2022/11/17 02:16:04;;;;;;;4.55;2.63;;;;;;;5.85;100.00;99555.66;6221760;28;20050;-77
2022/11/17 02:19:06;;;;;;;5.30;2.58;;;;;;;5.84;100.00;99544.41;6221757;28;20042;-77
2022/11/17 02:22:38;;;;;;;6.03;3.33;;;;;;;5.86;100.00;99533.91;6221718;28;20053;-76
2022/11/17 02:26:08;;;;;;;5.72;3.35;;;;;;;5.82;100.00;99530.63;6221706;28;20076;-77
2022/11/17 02:29:17;;;;;;;5.57;3.00;;;;;;;5.77;100.00;99514.38;6221855;28;20077;-74
2022/11/17 02:32:25;;;;;;;5.83;3.50;;;;;;;5.75;100.00;99518.00;6221868;28;20061;-77
2022/11/17 02:35:35;;;;;;;5.28;3.28;;;;;;;5.67;100.00;99507.97;6221448;28;20061;-76
2022/11/17 02:38:45;;;;;;;5.05;2.72;;;;;;;5.69;100.00;99516.56;6222026;28;20046;-74
2022/11/17 02:41:54;;;;;;;5.00;2.55;;;;;;;5.67;100.00;99501.91;6221219;28;20057;-74
2022/11/17 02:45:01;;;;;;;4.78;2.83;;;;;;;5.68;100.00;99494.03;6221250;28;20053;-74
2022/11/17 02:48:11;;;;;;;4.00;2.45;;;;;;;5.58;100.00;99490.19;6221785;28;20139;-76
2022/11/17 02:51:16;;;;;;;3.58;2.25;;;;;;;5.66;100.00;99490.66;6221546;28;20050;-76
2022/11/17 02:54:19;;;;;;;4.30;2.17;;;;;;;5.57;100.00;99481.53;6221131;28;20050;-75
2022/11/17 02:57:28;;;;;;;5.32;2.65;;;;;;;5.53;100.00;99466.16;6222139;28;20060;-74
2022/11/17 03:00:35;;;;;;;4.53;2.17;;;;;;;5.56;100.00;99469.44;6225615;28;20053;-76
2022/11/17 03:03:51;;;;;;;4.70;2.45;;;;;;;5.62;100.00;99441.38;6225811;28;20429;-76
2022/11/17 03:07:05;;;;;;;5.57;2.40;;;;;;;5.49;100.00;99442.03;6225903;28;20525;-77
2022/11/17 03:10:14;;;;;;;4.35;3.13;;;;;;;5.57;100.00;99447.66;6225456;28;20430;-76
2022/11/17 03:13:21;;;;;;;4.75;2.63;;;;;;;5.57;100.00;99447.66;6225615;28;20049;-75
2022/11/17 03:16:28;;;;;;;4.97;2.42;;;;;;;5.57;100.00;99447.66;6225535;28;20127;-76
2022/11/17 03:19:35;;;;;;;5.18;2.45;;;;;;;5.51;100.00;99441.97;6225450;28;20045;-75
2022/11/17 03:22:43;;;;;;;8.25;2.58;;;;;;;5.54;100.00;99442.66;6225670;28;20604;-75
2022/11/17 03:25:50;;;;;;;5.95;2.63;;;;;;;5.51;100.00;99448.00;6224967;28;20060;-75
2022/11/17 03:28:54;;;;;;;4.18;2.55;;;;;;;5.58;100.00;99438.09;6225489;28;20050;-76
2022/11/17 03:32:00;;;;;;;3.35;2.17;;;;;;;5.57;100.00;99445.06;6224817;28;20057;-75
2022/11/17 03:35:06;;;;;;;3.92;2.45;;;;;;;5.56;100.00;99452.97;6224905;28;20156;-76
2022/11/17 03:38:12;;;;;;;4.75;2.58;;;;;;;5.56;100.00;99443.41;6225122;28;20050;-76
2022/11/17 03:41:15;;;;;;;5.03;2.75;;;;;;;5.58;100.00;99446.75;6224922;28;20050;-75
2022/11/17 03:44:20;;;;;;;8.90;3.10;;;;;;;5.54;100.00;99434.84;6224445;28;20053;-74
2022/11/17 03:47:26;;;;;;;4.88;2.55;;;;;;;5.64;100.00;99436.94;6225001;28;20050;-75
2022/11/17 03:50:32;;;;;;;5.25;2.67;;;;;;;5.62;100.00;99443.97;6224714;28;20049;-77
2022/11/17 03:53:35;;;;;;;4.53;2.45;;;;;;;5.60;100.00;99431.88;6224874;28;20053;-76
2022/11/17 03:56:43;;;;;;;7.22;2.75;;;;;;;5.60;100.00;99423.22;6222092;28;20053;-76
2022/11/17 03:59:52;;;;;;;6.40;2.72;;;;;;;5.60;100.00;99425.84;6224371;28;20042;-76
2022/11/17 04:02:57;;;;;;;;;;;;;;;5.56;100.00;99419.09;6225333;28;20061;-76
2022/11/17 04:05:58;;;;;;;4.13;2.63;;;;;;;5.57;100.00;99411.19;6224079;28;19921;-76
2022/11/17 04:09:00;;;;;;;7.25;3.65;;;;;;;5.52;100.00;99417.59;6223902;28;20560;-74
2022/11/17 04:18:46;;;;;;;;;;;;;;;5.55;100.00;99391.38;6224753;28;20066;-76
2022/11/17 04:21:47;;;;;;;3.85;2.55;;;;;;;5.53;100.00;99396.66;6224075;28;19921;-76
2022/11/17 04:24:49;;;;;;;6.60;3.15;;;;;;;5.56;100.00;99396.50;6223643;28;20520;-76
2022/11/17 04:31:12;;;;;;;6.82;3.05;;;;;;;5.57;100.00;99379.91;6223849;28;20049;-77
2022/11/17 04:34:15;;;;;;;6.70;3.15;;;;;;;5.60;100.00;99384.97;6223901;28;20053;-76
2022/11/17 04:37:17;;;;;;;5.07;2.92;;;;;;;5.54;100.00;99384.44;6223853;28;20064;-75
2022/11/17 04:40:18;;;;;;;5.53;3.53;;;;;;;5.49;100.00;99381.25;6222430;28;20528;-76
2022/11/17 04:43:18;;;;;;;4.90;2.65;;;;;;;5.46;100.00;99376.25;6241726;28;20061;-76
2022/11/17 04:46:21;;;;;;;6.93;3.15;;;;;;;5.51;100.00;99377.66;6236567;28;20497;-74
2022/11/17 04:49:25;;;;;;;6.07;2.40;;;;;;;5.46;100.00;99384.88;6235518;28;20425;-74
2022/11/17 04:52:27;;;;;;;4.07;2.60;;;;;;;5.51;100.00;99377.66;6232322;28;20050;-74
2022/11/17 04:55:28;;;;;;;4.55;3.08;;;;;;;5.49;100.00;99366.47;6223212;28;20053;-74
2022/11/17 04:58:30;;;;;;;4.50;2.33;;;;;;;5.50;100.00;99389.00;6223201;28;20060;-75
2022/11/17 05:01:31;;;;;;;4.75;2.72;;;;;;;5.51;100.00;99384.63;6223254;28;20092;-75
2022/11/17 05:07:53;;;;;;;10.20;2.60;;;;;;;5.51;100.00;99371.63;6223503;28;20050;-74
2022/11/17 05:14:17;;;;;;;6.63;3.05;;;;;;;5.40;100.00;99355.72;6222685;28;20045;-75
2022/11/17 05:17:18;;;;;;;6.30;3.38;;;;;;;5.42;100.00;99362.53;6222917;28;20053;-75
2022/11/17 05:20:21;;;;;;;6.63;3.20;;;;;;;5.42;100.00;99353.88;6222484;28;20486;-75
2022/11/17 05:26:42;;;;;;;;;;;;;;;5.35;100.00;99342.94;6223561;28;20045;-75
2022/11/17 05:29:44;;;;;;;5.80;3.35;;;;;;;5.38;100.00;99350.59;6222662;28;20316;-75
2022/11/17 05:32:45;;;;;;;8.90;3.60;;;;;;;5.35;100.00;99348.97;6222846;28;20064;-75
2022/11/17 05:35:48;;;;;;;4.90;2.72;;;;;;;5.38;100.00;99368.00;6222209;28;20050;-75
2022/11/17 05:38:50;;;;;;;7.07;3.50;;;;;;;5.29;100.00;99351.09;6222640;28;20057;-75
2022/11/17 05:41:51;;;;;;;6.63;2.85;;;;;;;5.35;100.00;99350.75;6222196;28;20046;-75
2022/11/17 05:44:53;;;;;;;8.05;3.67;;;;;;;5.33;100.00;99337.81;6222095;28;20053;-75
2022/11/17 05:47:54;;;;;;;7.70;3.45;;;;;;;5.32;100.00;99333.53;6222530;28;20096;-75
2022/11/17 05:50:57;;;;;;;9.43;4.22;;;;;;;5.31;100.00;99344.88;6222040;28;20072;-75
2022/11/17 05:53:58;;;;;;;7.40;3.60;;;;;;;5.27;100.00;99338.16;6222087;28;20133;-75
2022/11/17 05:57:03;;;;;;;7.13;3.53;;;;;;;5.25;100.00;99337.38;6222275;28;20057;-75
2022/11/17 06:00:06;;;;;;;11.60;4.00;;;;;;;5.24;100.00;99334.88;6221994;28;20061;-75
2022/11/17 06:03:16;;;;;;;6.00;3.08;;;;;;;5.15;100.00;99333.59;6222134;28;20049;-75
2022/11/17 06:06:18;;;;;;;6.80;3.15;;;;;;;5.16;100.00;99324.88;6222258;28;20053;-75
2022/11/17 06:09:20;;;;;;;4.95;2.53;;;;;;;5.15;100.00;99323.19;6222166;28;20652;-74
2022/11/17 06:12:21;;;;;;;6.43;3.38;;;;;;;5.21;100.00;99324.63;6221779;28;20517;-75
2022/11/17 06:15:23;;;;;;;9.93;3.63;;;;;;;5.09;100.00;99326.97;6221634;28;20060;-75
2022/11/17 06:18:30;;;;;;;12.25;4.15;;;;;;;5.06;100.00;99326.28;6222204;28;20054;-75
2022/11/17 06:21:34;;;;;;;12.88;4.20;;;;;;;5.07;100.00;99320.16;6221756;28;20054;-75
2022/11/17 06:24:37;;;;;;;6.93;3.63;;;;;;;5.06;100.00;99326.28;6221853;28;20061;-74
2022/11/17 06:27:40;;;;;;;7.65;3.83;;;;;;;5.01;100.00;99318.72;6221858;28;20537;-74
2022/11/17 06:30:42;;;;;;;9.45;4.18;;;;;;;4.96;100.00;99304.28;6222141;28;20061;-74
2022/11/17 06:33:43;;;;;;;8.57;3.65;;;;;;;4.97;100.00;99321.56;6224395;28;20057;-74
2022/11/17 06:36:46;;;;;;;6.65;4.00;;;;;;;4.94;100.00;99300.91;6228201;28;20053;-75
2022/11/17 06:39:48;;;;;;;8.38;4.35;;;;;;;4.92;100.00;99302.75;6236208;28;20037;-74
2022/11/17 06:43:07;;;;;;;8.45;4.53;;;;;;;4.82;100.00;99302.41;6237829;28;20524;-76
2022/11/17 06:46:08;;;;;;;8.25;4.18;;;;;;;4.79;100.00;99306.00;6237075;28;20073;-75
2022/11/17 06:49:10;;;;;;;6.47;3.38;;;;;;;4.78;100.00;99317.34;6235978;28;20049;-75
2022/11/17 06:52:15;;;;;;;6.05;3.10;;;;;;;4.75;100.00;99303.66;6230792;28;20050;-75
2022/11/17 06:55:17;;;;;;;7.90;4.10;;;;;;;4.68;100.00;99305.75;6225516;28;20104;-74
2022/11/17 06:58:18;;;;;;;8.07;3.88;;;;;;;4.64;100.00;99313.78;6226192;28;20068;-75
2022/11/17 07:01:20;;;;;;;8.63;4.43;;;;;;;4.60;100.00;99297.50;6225661;28;20048;-75
2022/11/17 07:04:21;;;;;;;9.93;4.57;;;;;;;4.58;100.00;99301.91;6225734;28;20061;-74
2022/11/17 07:07:24;;;;;;;6.55;4.05;;;;;;;4.64;100.00;99298.19;6228908;28;20053;-75
2022/11/17 07:10:26;;;;;;;11.35;4.47;;;;;;;4.59;100.00;99269.81;6250145;28;20053;-74
2022/11/17 07:13:28;;;;;;;12.82;4.75;;;;;;;4.51;100.00;99284.97;6241361;28;20053;-74
2022/11/17 07:16:31;;;;;;;12.52;4.57;;;;;;;4.49;100.00;99286.78;6238351;28;20053;-75
2022/11/17 07:19:32;;;;;;;11.13;5.22;;;;;;;4.52;100.00;99307.44;6234898;28;20077;-75
2022/11/17 07:22:35;;;;;;;9.20;4.13;;;;;;;4.42;100.00;99301.03;6210754;28;20054;-74
2022/11/17 07:25:36;;;;;;;11.98;5.47;;;;;;;4.52;100.00;99299.66;6211645;28;20532;-75
2022/11/17 07:28:38;;;;;;;12.32;5.30;;;;;;;4.47;100.00;99293.84;6211502;28;20057;-74
2022/11/17 07:31:39;;;;;;;9.70;4.18;;;;;;;4.43;100.00;99290.56;6226393;28;20037;-74
2022/11/17 07:34:41;;;;;;;10.45;4.65;;;;;;;4.38;100.00;99287.34;6230982;28;20054;-74
2022/11/17 07:37:44;;;;;;;9.18;4.32;;;;;;;4.45;100.00;99283.53;6233041;28;20046;-72
2022/11/17 07:40:45;;;;;;;11.50;5.25;;;;;;;4.42;100.00;99277.63;6235100;28;20046;-74
2022/11/17 07:43:46;;;;;;;9.23;4.15;;;;;;;4.37;100.00;99259.66;6234501;28;20048;-73
2022/11/17 07:46:48;;;;;;;8.60;4.20;;;;;;;4.35;100.00;99260.66;6231687;28;20054;-73
2022/11/17 07:49:49;;;;;;;9.80;4.88;;;;;;;4.30;100.00;99234.88;6224818;28;20053;-74
2022/11/17 07:52:54;;;;;;;12.70;4.72;;;;;;;4.25;100.00;99229.09;6224996;28;20054;-73
2022/11/17 07:55:56;;;;;;;9.48;4.65;;;;;;;4.23;100.00;99231.78;6224678;28;20053;-73
2022/11/17 07:58:57;;;;;;;11.30;4.88;;;;;;;4.20;100.00;99225.88;6224801;28;20049;-73
2022/11/17 08:01:59;;;;;;;11.32;4.95;;;;;;;4.21;100.00;99228.41;6224467;28;20391;-73
2022/11/17 08:05:00;;;;;;;8.50;3.53;;;;;;;4.21;100.00;99214.56;6222107;28;20050;-73
2022/11/17 08:08:03;;;;;;;9.75;4.90;;;;;;;4.18;100.00;99228.59;6218603;28;20050;-73
2022/11/17 08:11:06;;;;;;;9.13;4.80;;;;;;;4.15;100.00;99217.50;6224203;28;20049;-72
2022/11/17 08:14:07;;;;;;;8.90;3.63;;;;;;;4.17;100.00;99211.28;6224033;28;20050;-73
2022/11/17 08:17:09;;;;;;;9.10;4.53;;;;;;;4.20;100.00;99203.31;6224554;28;20061;-74
2022/11/17 08:20:12;;;;;;;10.35;4.30;;;;;;;4.19;100.00;99209.47;6223917;28;20060;-74
2022/11/17 08:23:14;;;;;;;10.27;4.90;;;;;;;4.23;100.00;99207.53;6224381;28;20045;-73
2022/11/17 08:26:16;;;;;;;8.85;3.92;;;;;;;4.24;100.00;99201.41;6223610;28;20053;-73
2022/11/17 08:29:17;;;;;;;9.43;4.53;;;;;;;4.20;100.00;99215.50;6224248;28;20046;-72
2022/11/17 08:32:19;;;;;;;10.57;4.07;;;;;;;4.14;100.00;99240.06;6223790;28;20050;-73
2022/11/17 08:35:23;;;;;;;10.10;4.20;;;;;;;4.16;100.00;99238.19;6223306;28;20292;-73
2022/11/17 08:38:27;;;;;;;8.63;4.05;;;;;;;4.21;100.00;99236.19;6223830;28;20058;-74
2022/11/17 08:41:30;;;;;;;9.48;4.70;;;;;;;4.15;100.00;99233.09;6223198;28;20056;-74
2022/11/17 08:44:32;;;;;;;8.10;4.30;;;;;;;4.18;100.00;99238.09;6223263;28;20057;-74
2022/11/17 08:47:34;;;;;;;10.02;4.82;;;;;;;4.15;100.00;99225.28;6223582;28;20417;-74
2022/11/17 08:50:35;;;;;;;9.48;4.22;;;;;;;4.17;100.00;99249.44;6223434;28;20067;-74
2022/11/17 08:53:38;;;;;;;8.73;3.40;;;;;;;4.15;100.00;99235.69;6223367;28;20441;-74
2022/11/17 08:56:39;;;;;;;9.93;4.07;;;;;;;4.17;100.00;99241.63;6222907;28;20428;-76
2022/11/17 08:59:41;;;;;;;16.52;4.25;;;;;;;4.13;100.00;99243.53;6223015;28;20053;-74
2022/11/17 09:02:42;;;;;;;7.43;4.25;;;;;;;4.11;100.00;99249.75;6223581;28;20046;-75
2022/11/17 09:05:47;;;;;;;6.70;3.55;;;;;;;4.16;100.00;99253.81;6222901;28;20054;-74
2022/11/17 09:08:52;;;;;;;7.15;3.47;;;;;;;4.11;100.00;99240.19;6223069;28;20056;-75
2022/11/17 09:11:54;;;;;;;8.45;3.60;;;;;;;4.15;100.00;99233.94;6222788;28;20046;-75
2022/11/17 09:14:55;;;;;;;9.18;3.92;;;;;;;4.15;100.00;99220.94;6222396;28;20057;-74
2022/11/17 09:17:57;;;;;;;6.80;3.35;;;;;;;4.22;100.00;99221.44;6222996;28;20057;-75
2022/11/17 09:21:00;;;;;;;14.38;5.32;;;;;;;4.18;100.00;99212.97;6222519;28;20490;-75
2022/11/17 09:24:02;;;;;;;8.50;3.92;;;;;;;4.19;100.00;99226.81;6222489;28;20050;-74
2022/11/17 09:27:04;;;;;;;6.80;3.60;;;;;;;4.18;100.00;99225.13;6223068;28;20057;-75
2022/11/17 09:30:07;;;;;;;7.65;3.70;;;;;;;4.22;100.00;99235.28;6222640;28;20053;-74
2022/11/17 09:33:09;;;;;;;6.60;3.20;;;;;;;4.21;100.00;99238.81;6222620;28;20050;-75
2022/11/17 09:36:12;;;;;;;7.00;4.00;;;;;;;4.23;100.00;99233.53;6222571;28;20054;-75
2022/11/17 09:39:14;;;;;;;8.45;4.07;;;;;;;4.27;100.00;99251.50;6222559;28;20050;-74
2022/11/17 09:42:18;;;;;;;7.88;3.83;;;;;;;4.22;100.00;99248.28;6231636;28;20049;-74
2022/11/17 09:45:24;;;;;;;9.82;4.13;;;;;;;4.27;100.00;99237.63;6233076;28;20076;-74
2022/11/17 09:48:37;;;;;;;6.78;4.07;;;;;;;4.30;100.00;99230.53;6236082;28;20058;-75
2022/11/17 09:51:42;;;;;;;7.80;4.53;;;;;;;4.27;100.00;99219.44;6231345;28;20049;-74
2022/11/17 09:54:51;;;;;;;6.47;3.63;;;;;;;4.29;100.00;99217.63;6225810;28;20056;-74
2022/11/17 09:58:01;;;;;;;7.80;3.55;;;;;;;4.36;100.00;99224.19;6222449;28;20050;-74
2022/11/17 10:01:02;;;;;;;7.55;3.53;;;;;;;4.43;100.00;99219.50;6221947;28;20042;-74
2022/11/17 10:04:10;;;;;;;7.53;3.25;;;;;;;4.39;100.00;99216.19;6222002;28;20049;-75
2022/11/17 10:07:11;;;;;;;11.13;3.35;;;;;;;4.38;100.00;99244.91;6221864;28;20057;-75
2022/11/17 10:10:19;;;;;;;7.25;3.20;;;;;;;4.41;100.00;99236.94;6222219;28;20073;-75
2022/11/17 10:13:25;;;;;;;6.18;3.05;;;;;;;4.39;100.00;99228.38;6222021;28;20050;-75
2022/11/17 10:16:26;;;;;;;6.90;3.25;;;;;;;4.44;100.00;99235.00;6221878;28;20076;-75
2022/11/17 10:19:29;;;;;;;6.00;2.72;;;;;;;4.38;100.00;99232.72;6229456;28;20050;-75
2022/11/17 10:22:35;;;;;;;6.68;3.20;;;;;;;4.37;100.00;99233.66;6232580;28;20042;-75
2022/11/17 10:25:41;;;;;;;5.82;3.13;;;;;;;4.40;100.00;99227.44;6232468;28;20057;-74
2022/11/17 10:28:42;;;;;;;6.30;3.70;;;;;;;4.38;100.00;99230.13;6240895;28;20068;-76
2022/11/17 10:31:45;;;;;;;4.82;2.67;;;;;;;4.41;100.00;99244.75;6246175;28;20069;-75
2022/11/17 10:34:47;;;;;;;6.00;3.08;;;;;;;4.41;100.00;99237.78;6245898;28;20370;-75
2022/11/17 10:37:55;;;;;;;6.50;2.63;;;;;;;4.45;100.00;99238.44;6246260;28;20049;-75
2022/11/17 10:41:01;;;;;;;9.77;3.50;;;;;;;4.44;100.00;99239.38;6246319;28;20046;-74
2022/11/17 10:44:05;;;;;;;8.10;3.22;;;;;;;4.49;100.00;99232.16;6245813;28;20530;-74
2022/11/17 10:47:25;;;;;;;6.13;2.80;;;;;;;4.50;100.00;99223.47;6246234;28;20053;-74
2022/11/17 10:50:27;;;;;;;10.40;3.30;;;;;;;4.53;100.00;99231.09;6245808;28;20045;-74
2022/11/17 10:53:36;;;;;;;4.78;2.95;;;;;;;4.50;100.00;99213.06;6246310;28;20046;-74
2022/11/17 10:56:43;;;;;;;4.87;2.80;;;;;;;4.50;100.00;99216.50;6245669;28;20057;-74
2022/11/17 10:59:48;;;;;;;5.88;3.05;;;;;;;4.58;100.00;99222.09;6245953;28;20057;-75
2022/11/17 11:03:03;;;;;;;5.60;2.97;;;;;;;4.69;100.00;99211.16;6245859;28;20048;-74
2022/11/17 11:06:07;;;;;;;6.75;2.83;;;;;;;4.70;100.00;99215.41;6245829;28;20050;-74
2022/11/17 11:09:15;;;;;;;7.47;3.10;;;;;;;4.76;100.00;99217.69;6245792;28;20053;-73
2022/11/17 11:12:24;;;;;;;6.20;2.67;;;;;;;4.75;100.00;99209.97;6246241;28;20052;-74
2022/11/17 11:15:32;;;;;;;6.30;2.60;;;;;;;4.75;100.00;99202.16;6232857;28;20299;-74
2022/11/17 11:18:33;;;;;;;6.50;3.45;;;;;;;4.65;100.00;99217.44;6221622;28;20522;-79
2022/11/17 11:22:02;;;;;;;7.00;3.75;;;;;;;4.63;100.00;99202.81;6225429;28;20061;-77
2022/11/17 11:25:19;;;;;;;6.75;2.47;;;;;;;4.54;100.00;99198.94;6226166;28;20064;-81
2022/11/17 11:28:37;;;;;;;4.80;2.78;;;;;;;4.57;100.00;99196.19;6226421;28;20050;-74
2022/11/17 11:31:52;;;;;;;6.30;2.47;;;;;;;4.59;100.00;99196.97;6200846;28;20049;-74
2022/11/17 11:35:11;;;;;;;5.07;2.58;;;;;;;4.62;100.00;99199.38;6200878;28;20050;-74
2022/11/17 11:38:31;;;;;;;4.18;2.78;;;;;;;4.62;100.00;99201.97;6201272;28;20054;-74
2022/11/17 11:41:59;;;;;;;4.43;2.22;;;;;;;4.65;100.00;99200.97;6200468;28;20050;-75
2022/11/17 11:45:23;;;;;;;5.05;2.65;;;;;;;4.65;100.00;99211.38;6198160;28;20077;-75
2022/11/17 11:48:27;;;;;;;3.75;1.85;;;;;;;4.65;100.00;99200.97;6200759;28;20050;-75
2022/11/17 11:51:36;;;;;;;4.82;2.22;;;;;;;4.67;100.00;99209.53;6200557;28;20046;-75
2022/11/17 11:54:44;;;;;;;2.83;1.88;;;;;;;4.71;100.00;99211.06;6200150;28;20057;-75
2022/11/17 11:57:52;;;;;;;2.70;1.90;;;;;;;4.70;100.00;99217.19;6200764;28;20057;-74
2022/11/17 12:01:04;;;;;;;11.48;2.47;;;;;;;4.70;100.00;99210.22;6200154;28;20050;-74
2022/11/17 12:04:23;;;;;;;7.78;2.08;;;;;;;4.71;100.00;99209.28;6200172;28;20046;-74
2022/11/17 12:07:33;;;;;;;2.88;1.92;;;;;;;4.72;100.00;99218.75;6200321;28;20425;-74
2022/11/17 12:10:41;;;;;;;4.32;1.83;;;;;;;4.66;100.00;99215.66;6206290;28;20489;-75
2022/11/17 12:13:43;;;;;;;4.15;2.42;;;;;;;4.62;100.00;99217.59;6227799;28;20061;-74
2022/11/17 12:16:47;;;;;;;2.40;1.65;;;;;;;4.64;100.00;99227.94;6229703;28;20053;-75
2022/11/17 12:19:54;;;;;;;3.50;1.98;;;;;;;4.68;100.00;99232.88;6230361;28;20045;-74
2022/11/17 12:23:06;;;;;;;3.58;1.63;;;;;;;4.65;100.00;99227.84;6235118;28;20049;-74
2022/11/17 12:26:07;;;;;;;3.83;1.75;;;;;;;4.66;100.00;99226.06;6232068;28;20042;-73
2022/11/17 12:29:27;;;;;;;2.42;1.40;;;;;;;4.64;100.00;99226.16;6235793;28;20424;-74
2022/11/17 12:32:53;;;;;;;1.55;1.13;;;;;;;4.58;100.00;99224.72;6227393;28;20429;-76
2022/11/17 12:36:24;;;;;;;3.22;1.85;;;;;;;4.60;100.00;99236.81;6230631;28;20049;-73
2022/11/17 12:39:55;;;;;;;2.95;1.65;;;;;;;4.64;100.00;99233.97;6224960;28;20053;-73
2022/11/17 12:43:20;;;;;;;2.17;1.50;;;;;;;4.58;100.00;99227.31;6227090;28;20497;-72
2022/11/17 12:46:32;;;;;;;5.40;1.60;;;;;;;4.61;100.00;99231.53;6217251;28;20522;-74
2022/11/17 12:49:47;;;;;;;4.47;1.58;;;;;;;4.67;100.00;99233.78;6207720;28;20536;-73
2022/11/17 12:53:01;;;;;;;2.70;1.80;;;;;;;4.66;100.00;99239.09;6206575;28;20049;-73
2022/11/17 12:56:16;;;;;;;3.47;1.80;;;;;;;4.68;100.00;99238.09;6222796;28;20046;-72
2022/11/17 12:59:42;;;;;;;5.28;2.42;;;;;;;4.70;100.00;99246.63;6223226;28;20046;-72
2022/11/17 13:02:56;;;;;;;2.78;1.90;;;;;;;4.69;100.00;99244.97;6211446;28;20057;-72
2022/11/17 13:06:10;;;;;;;6.72;2.00;;;;;;;4.73;100.00;99251.69;6222817;28;20699;-73
2022/11/17 13:09:12;;;;;;;1.58;1.20;;;;;;;4.79;100.00;99250.50;6223047;28;20536;-73
2022/11/17 13:12:13;;;;;;;3.05;1.92;;;;;;;4.82;100.00;99252.97;6222694;28;20038;-73
2022/11/17 13:15:22;;;;;;;2.67;1.67;;;;;;;4.83;100.00;99250.28;6222397;28;20053;-73
2022/11/17 13:18:29;;;;;;;2.35;1.35;;;;;;;4.85;100.00;99250.19;6222821;28;20049;-73
2022/11/17 13:21:32;;;;;;;3.10;1.70;;;;;;;4.87;100.00;99250.94;6222708;28;20053;-73
2022/11/17 13:24:36;;;;;;;2.25;1.55;;;;;;;4.88;100.00;99257.81;6217212;28;20053;-73
2022/11/17 13:27:44;;;;;;;2.92;1.75;;;;;;;4.84;100.00;99259.75;6216284;28;20601;-73
2022/11/17 13:30:46;;;;;;;3.13;1.30;;;;;;;4.88;100.00;99260.44;6219210;28;20410;-73
2022/11/17 13:34:01;;;;;;;2.03;1.15;;;;;;;4.91;100.00;99257.69;6215282;28;20058;-73
2022/11/17 13:37:04;;;;;;;3.10;1.50;;;;;;;4.91;100.00;99265.47;6212468;28;20046;-73
2022/11/17 13:40:19;;;;;;;1.92;1.25;;;;;;;4.91;100.00;99265.47;6209251;28;20052;-75
2022/11/17 13:43:23;;;;;;;4.50;1.80;;;;;;;4.94;100.00;99256.66;6209152;28;20056;-74
2022/11/17 13:46:25;;;;;;;2.10;1.38;;;;;;;4.88;100.00;99257.81;6242129;23;20053;-74
2022/11/17 13:49:33;;;;;;;3.97;2.00;;;;;;;4.87;100.00;99263.97;6191181;28;20441;-73
2022/11/17 13:52:37;;;;;;;4.28;1.48;;;;;;;4.89;100.00;99256.06;6197113;28;20512;-73
2022/11/17 13:55:44;;;;;;;3.13;1.70;;;;;;;4.90;100.00;99260.34;6193014;28;20042;-72
2022/11/17 13:58:48;;;;;;;3.13;1.73;;;;;;;4.92;100.00;99269.75;6190984;28;20516;-77
2022/11/17 14:02:24;;;;;;;3.35;1.90;;;;;;;4.92;100.00;99255.91;6195443;28;20050;-72
2022/11/17 14:05:26;;;;;;;2.03;1.40;;;;;;;4.97;100.00;99274.72;6192282;28;20057;-71
2022/11/17 14:08:32;;;;;;;2.97;1.90;;;;;;;4.94;100.00;99267.06;6197557;28;20520;-72
2022/11/17 14:11:33;;;;;;;4.38;1.13;;;;;;;4.93;100.00;99266.22;6201159;28;20490;-72
2022/11/17 14:14:40;;;;;;;1.80;1.30;;;;;;;4.94;100.00;99267.06;6190999;28;20435;-72
2022/11/17 14:17:49;;;;;;;2.97;1.73;;;;;;;4.85;100.00;99263.19;6196376;28;20053;-72
2022/11/17 14:21:04;;;;;;;3.10;1.70;;;;;;;4.91;100.00;99267.25;6196914;28;20053;-72
2022/11/17 14:24:11;;;;;;;2.30;1.40;;;;;;;4.92;100.00;99274.97;6197288;28;20301;-70
2022/11/17 14:27:34;;;;;;;4.43;1.60;;;;;;;4.91;100.00;99269.84;6197136;28;20046;-71
2022/11/17 14:30:35;;;;;;;2.30;1.55;;;;;;;4.92;100.00;99261.94;6197331;28;20058;-71
2022/11/17 14:33:37;;;;;;;1.95;1.33;;;;;;;4.96;100.00;99275.66;6197086;28;20055;-71
2022/11/17 14:36:39;;;;;;;1.67;1.27;;;;;;;4.98;100.00;99279.00;6197072;28;20051;-72
2022/11/17 14:39:42;;;;;;;1.90;1.15;;;;;;;4.94;100.00;99274.88;6197007;28;20050;-71
2022/11/17 14:42:44;;;;;;;3.03;1.63;;;;;;;4.89;100.00;99282.09;6197110;28;20053;-71
2022/11/17 14:45:46;;;;;;;2.80;1.60;;;;;;;4.93;100.00;99275.81;6196691;28;20502;-71
2022/11/17 14:48:48;;;;;;;10.68;1.60;;;;;;;4.93;100.00;99287.06;6197681;28;20047;-71
2022/11/17 14:51:49;;;;;;;4.60;1.80;;;;;;;4.92;100.00;99277.56;6196916;28;20053;-71
2022/11/17 14:54:52;;;;;;;2.60;1.60;;;;;;;4.95;100.00;99279.16;6199490;28;20062;-71
2022/11/17 14:57:54;;;;;;;3.08;1.65;;;;;;;4.93;100.00;99283.59;6201710;28;20522;-71
2022/11/17 15:00:55;;;;;;;3.55;1.92;;;;;;;4.92;100.00;99290.59;6201185;28;20046;-70
2022/11/17 15:03:59;;;;;;;3.63;1.60;;;;;;;4.91;100.00;99294.13;6201318;28;20529;-71